Time;durP1;ratioP1;P1;durP2;ratioP2;P2;SDS_P1;SDS_P2;PMS_P1;PMS_P2;Temp;Humidity;BMP_temperature;BMP_pressure;BME280_temperature;BME280_humidity;BME280_pressure;Samples;Min_cycle;Max_cycle;Signal;HPM_P1;HPM_P2
2021/08/06 00:00:03;;;;;;;1.97;1.60;;;19.50;99.90;;;;;;5031223;28;20233;-77
2021/08/06 00:02:31;;;;;;;5.83;2.03;;;19.50;99.90;;;;;;5031175;28;20197;-78
2021/08/06 00:05:00;;;;;;;3.53;1.60;;;19.50;99.90;;;;;;5030494;27;20236;-78
2021/08/06 00:07:28;;;;;;;2.50;1.60;;;19.60;99.90;;;;;;5030457;28;20707;-79
2021/08/06 00:09:55;;;;;;;4.13;1.60;;;19.50;99.90;;;;;;5031038;28;20206;-78
2021/08/06 00:12:22;;;;;;;5.13;1.87;;;19.60;99.90;;;;;;5030952;28;20232;-78
2021/08/06 00:14:49;;;;;;;2.43;1.80;;;19.40;99.90;;;;;;5030899;28;20199;-81
2021/08/06 00:17:16;;;;;;;2.57;1.90;;;19.30;99.90;;;;;;5030805;28;20702;-78
2021/08/06 00:19:43;;;;;;;3.60;1.70;;;19.10;99.90;;;;;;5030743;28;20713;-80
2021/08/06 00:22:12;;;;;;;2.50;1.63;;;19.00;99.90;;;;;;5031335;27;20592;-78
2021/08/06 00:24:38;;;;;;;2.30;1.63;;;18.90;99.90;;;;;;5030789;28;20252;-77
2021/08/06 00:27:06;;;;;;;2.87;1.67;;;19.00;99.90;;;;;;5030672;28;20555;-79
2021/08/06 00:29:32;;;;;;;5.33;1.50;;;18.90;99.90;;;;;;5030579;28;20295;-81
2021/08/06 00:31:59;;;;;;;6.70;2.07;;;18.80;99.90;;;;;;5030689;28;20283;-79
2021/08/06 00:34:26;;;;;;;4.57;2.00;;;18.70;99.90;;;;;;5030684;28;20597;-81
2021/08/06 00:36:53;;;;;;;3.67;1.97;;;18.60;99.90;;;;;;5031039;28;20225;-81
2021/08/06 00:39:22;;;;;;;3.10;2.10;;;18.50;99.90;;;;;;5031082;28;20529;-82
2021/08/06 00:41:49;;;;;;;3.07;2.03;;;18.30;99.90;;;;;;5030839;28;20216;-80
2021/08/06 00:44:16;;;;;;;3.47;2.50;;;18.30;99.90;;;;;;5030838;28;20648;-81
2021/08/06 00:46:43;;;;;;;4.40;2.27;;;18.20;99.90;;;;;;5030805;28;20232;-81
2021/08/06 00:49:10;;;;;;;3.20;2.40;;;18.20;99.90;;;;;;5030805;27;20299;-83
2021/08/06 00:51:37;;;;;;;6.77;2.50;;;18.10;99.90;;;;;;5031157;28;20204;-81
2021/08/06 00:54:05;;;;;;;3.83;2.50;;;18.10;99.90;;;;;;5030897;28;20283;-80
2021/08/06 00:56:33;;;;;;;4.20;2.50;;;18.10;99.90;;;;;;5030686;28;20189;-81
2021/08/06 00:59:00;;;;;;;3.77;2.27;;;18.10;99.90;;;;;;5030650;28;20701;-82
2021/08/06 01:01:30;;;;;;;4.30;2.40;;;18.00;99.90;;;;;;5030372;28;20297;-80
2021/08/06 01:04:06;;;;;;;5.23;3.10;;;18.00;99.90;;;;;;5030653;27;20319;-84
2021/08/06 01:06:42;;;;;;;6.53;2.50;;;17.90;99.90;;;;;;5030468;28;20291;-81
2021/08/06 01:09:19;;;;;;;3.17;2.77;;;17.90;99.90;;;;;;5030335;28;20223;-80
2021/08/06 01:11:53;;;;;;;4.37;2.53;;;17.90;99.90;;;;;;5030304;28;20199;-82
2021/08/06 01:14:26;;;;;;;6.80;2.77;;;18.00;99.90;;;;;;5030359;28;20211;-82
2021/08/06 01:16:55;;;;;;;4.23;2.23;;;18.00;99.90;;;;;;5030237;27;20208;-82
2021/08/06 01:19:26;;;;;;;4.60;2.93;;;18.00;99.90;;;;;;5030622;28;20618;-84
2021/08/06 01:22:02;;;;;;;4.23;2.63;;;18.10;99.90;;;;;;5030385;27;20208;-82
2021/08/06 01:24:33;;;;;;;3.67;2.80;;;18.10;99.90;;;;;;5030193;28;20220;-81
2021/08/06 01:27:01;;;;;;;6.17;2.90;;;18.10;99.90;;;;;;5030477;28;20228;-85
2021/08/06 01:29:28;;;;;;;5.10;2.90;;;18.10;99.90;;;;;;5030304;28;20204;-83
2021/08/06 01:31:55;;;;;;;5.73;2.93;;;18.10;99.90;;;;;;5030504;27;20287;-81
2021/08/06 01:34:22;;;;;;;4.23;2.60;;;18.00;99.90;;;;;;5030617;27;20204;-84
2021/08/06 01:36:50;;;;;;;4.23;2.80;;;18.00;99.90;;;;;;5030272;27;20283;-85
2021/08/06 01:39:17;;;;;;;3.57;2.47;;;17.90;99.90;;;;;;5031278;27;20280;-83
2021/08/06 01:41:52;;;;;;;3.43;2.70;;;17.90;99.90;;;;;;5030499;27;20223;-85
2021/08/06 01:44:28;;;;;;;4.53;2.53;;;17.90;99.90;;;;;;5030403;27;20297;-87
2021/08/06 01:47:01;;;;;;;3.53;2.90;;;17.90;99.90;;;;;;5030674;27;20235;-85
2021/08/06 01:49:31;;;;;;;4.50;2.73;;;17.90;99.90;;;;;;5030417;27;20201;-82
2021/08/06 01:52:03;;;;;;;4.87;2.73;;;17.90;99.90;;;;;;5030055;28;20218;-83
2021/08/06 01:54:32;;;;;;;7.63;3.37;;;17.90;99.90;;;;;;5030183;28;20280;-83
2021/08/06 01:57:01;;;;;;;5.33;2.83;;;17.90;99.90;;;;;;5030141;27;20283;-81
2021/08/06 01:59:30;;;;;;;6.60;3.03;;;17.90;99.90;;;;;;5030211;27;20527;-84
2021/08/06 02:01:58;;;;;;;4.03;2.50;;;17.90;99.90;;;;;;5029874;28;20645;-83
2021/08/06 02:04:25;;;;;;;5.03;2.80;;;17.90;99.90;;;;;;5029758;28;20320;-85
2021/08/06 02:06:53;;;;;;;5.00;2.73;;;17.90;99.90;;;;;;5030584;27;20292;-88
2021/08/06 02:09:21;;;;;;;5.57;3.03;;;17.90;99.90;;;;;;5031187;27;20205;-84
2021/08/06 02:11:49;;;;;;;4.70;3.03;;;17.90;99.90;;;;;;5031262;27;20205;-83
2021/08/06 02:14:25;;;;;;;8.90;3.03;;;17.90;99.90;;;;;;5030455;28;20205;-88
2021/08/06 02:21:05;;;;;;;3.03;2.10;;;18.00;99.90;;;;;;5001203;27;20204;-85
2021/08/06 02:23:34;;;;;;;6.77;2.60;;;17.90;99.90;;;;;;5023190;27;20206;-83
2021/08/06 02:26:02;;;;;;;3.07;2.47;;;17.80;99.90;;;;;;5029533;28;20708;-83
2021/08/06 02:28:29;;;;;;;4.30;2.20;;;17.70;99.90;;;;;;5029798;28;20553;-84
2021/08/06 02:30:56;;;;;;;4.47;2.30;;;17.70;99.90;;;;;;5032916;28;20228;-83
2021/08/06 02:33:24;;;;;;;4.53;2.40;;;17.80;99.90;;;;;;5032841;28;20201;-83
2021/08/06 02:35:51;;;;;;;2.47;2.20;;;17.70;99.90;;;;;;5033154;28;20689;-83
2021/08/06 02:38:22;;;;;;;2.83;2.20;;;17.70;99.90;;;;;;5037790;27;20640;-84
2021/08/06 02:40:50;;;;;;;3.13;2.13;;;17.80;99.90;;;;;;5055716;28;20213;-81
2021/08/06 02:43:17;;;;;;;3.00;2.07;;;17.70;99.90;;;;;;5054722;27;20621;-79
2021/08/06 02:45:46;;;;;;;5.13;2.40;;;17.70;99.90;;;;;;5054498;27;20246;-81
2021/08/06 02:48:12;;;;;;;2.83;2.20;;;17.80;99.90;;;;;;5054448;27;20208;-80
2021/08/06 02:50:40;;;;;;;3.70;2.17;;;17.80;99.90;;;;;;5053071;28;20177;-79
2021/08/06 02:53:06;;;;;;;4.20;2.50;;;17.80;99.90;;;;;;5045832;28;20197;-80
2021/08/06 02:55:35;;;;;;;5.57;2.37;;;17.80;99.90;;;;;;5033595;27;20224;-82
2021/08/06 02:58:02;;;;;;;3.30;2.60;;;17.80;99.90;;;;;;5033590;28;20288;-81
2021/08/06 03:00:29;;;;;;;4.27;2.83;;;17.80;99.90;;;;;;5033047;28;20193;-82
2021/08/06 03:02:56;;;;;;;3.47;2.70;;;17.80;99.90;;;;;;5033164;28;20232;-84
2021/08/06 03:05:23;;;;;;;6.77;2.90;;;17.80;99.90;;;;;;5032829;28;20221;-82
2021/08/06 03:07:50;;;;;;;3.80;2.60;;;17.80;99.90;;;;;;5032876;28;20197;-82
2021/08/06 03:10:18;;;;;;;6.70;3.40;;;17.80;99.90;;;;;;5032388;28;20250;-83
2021/08/06 03:12:47;;;;;;;5.17;3.17;;;17.70;99.90;;;;;;5032469;28;20246;-80
2021/08/06 03:15:14;;;;;;;6.20;3.37;;;17.60;99.90;;;;;;5032547;28;20196;-82
2021/08/06 03:25:03;;;;;;;3.27;2.53;;;17.60;99.90;;;;;;4980037;28;20274;-84
2021/08/06 03:27:55;;;;;;;3.83;2.90;;;17.50;99.90;;;;;;5032450;27;20304;-85
2021/08/06 03:41:32;;;;;;;4.93;2.70;;;17.00;99.90;;;;;;4974180;28;20327;-86
2021/08/06 03:44:02;;;;;;;11.33;3.13;;;16.90;99.90;;;;;;4961549;28;20222;-84
2021/08/06 03:46:33;;;;;;;4.27;3.07;;;17.00;99.90;;;;;;5016378;28;20216;-84
2021/08/06 03:49:36;;;;;;;8.37;3.50;;;16.90;99.90;;;;;;5051601;27;20207;-85
2021/08/06 03:59:01;;;;;;;7.13;3.20;;;17.00;99.90;;;;;;4932748;29;20295;-84
2021/08/06 04:01:29;;;;;;;5.60;2.80;;;16.90;99.90;;;;;;4988327;28;20648;-87
2021/08/06 04:03:59;;;;;;;3.80;3.10;;;16.90;99.90;;;;;;5051144;28;20757;-87
2021/08/06 04:06:31;;;;;;;5.13;3.30;;;16.80;99.90;;;;;;5050899;28;20466;-84
2021/08/06 04:09:09;;;;;;;4.97;2.90;;;16.80;99.90;;;;;;5051352;28;20529;-84
2021/08/06 04:11:36;;;;;;;5.30;3.07;;;16.80;99.90;;;;;;5051128;28;20337;-83
2021/08/06 04:14:05;;;;;;;13.53;3.13;;;16.80;99.90;;;;;;5051348;28;20196;-84
2021/08/06 04:16:32;;;;;;;6.13;2.80;;;16.90;99.90;;;;;;5051645;27;20192;-83
2021/08/06 04:18:59;;;;;;;4.53;2.63;;;16.90;99.90;;;;;;5051328;28;20287;-82
2021/08/06 04:21:26;;;;;;;7.20;2.80;;;16.90;99.90;;;;;;5050873;28;20712;-82
2021/08/06 04:23:53;;;;;;;5.63;2.80;;;16.90;99.90;;;;;;5051150;28;20235;-83
2021/08/06 04:26:21;;;;;;;5.80;2.80;;;16.90;99.90;;;;;;5050527;28;20676;-82
2021/08/06 04:28:48;;;;;;;3.70;2.73;;;16.90;99.90;;;;;;5042992;28;20283;-82
2021/08/06 04:31:16;;;;;;;3.00;2.37;;;16.90;99.90;;;;;;5050902;28;20291;-82
2021/08/06 04:33:43;;;;;;;4.77;3.00;;;16.90;99.90;;;;;;5051231;28;20280;-82
2021/08/06 04:36:10;;;;;;;4.60;2.93;;;16.90;99.90;;;;;;5050548;28;20239;-84
2021/08/06 04:38:37;;;;;;;5.97;2.77;;;16.90;99.90;;;;;;5050726;28;20668;-81
2021/08/06 04:41:04;;;;;;;3.80;2.70;;;16.90;99.90;;;;;;5050952;28;20231;-82
2021/08/06 04:43:31;;;;;;;7.37;2.83;;;16.90;99.90;;;;;;5050997;28;20282;-83
2021/08/06 04:45:58;;;;;;;7.00;2.87;;;16.90;99.90;;;;;;5050550;28;20302;-84
2021/08/06 04:48:27;;;;;;;3.93;2.77;;;17.00;99.90;;;;;;5050549;28;20252;-83
2021/08/06 04:50:53;;;;;;;7.50;3.37;;;16.90;99.90;;;;;;5050407;28;20227;-82
2021/08/06 04:53:20;;;;;;;9.20;3.60;;;16.90;99.90;;;;;;5049864;28;20609;-84
2021/08/06 04:55:47;;;;;;;5.07;3.00;;;16.90;99.90;;;;;;5042621;28;20200;-82
2021/08/06 04:58:14;;;;;;;6.93;3.50;;;16.90;99.90;;;;;;5050593;28;20300;-82
2021/08/06 05:00:41;;;;;;;7.07;3.47;;;16.90;99.90;;;;;;5050449;28;20261;-82
2021/08/06 05:03:08;;;;;;;6.87;3.57;;;16.90;99.90;;;;;;5050355;28;20282;-82
2021/08/06 05:05:37;;;;;;;7.07;3.50;;;16.80;99.90;;;;;;5050587;28;20673;-81
2021/08/06 05:08:04;;;;;;;10.97;3.53;;;16.90;99.90;;;;;;5050466;28;20283;-81
2021/08/06 05:10:31;;;;;;;10.27;3.73;;;16.90;99.90;;;;;;5050384;28;20184;-81
2021/08/06 05:12:58;;;;;;;10.63;3.60;;;16.90;99.90;;;;;;5050359;28;20276;-82
2021/08/06 05:15:25;;;;;;;7.93;3.53;;;17.00;99.90;;;;;;5050317;28;20192;-81
2021/08/06 05:17:52;;;;;;;8.33;3.77;;;17.00;99.90;;;;;;5050105;28;20275;-82
2021/08/06 05:20:19;;;;;;;28.83;5.07;;;16.90;99.90;;;;;;5050311;28;20388;-82
2021/08/06 05:22:47;;;;;;;10.13;3.63;;;16.90;99.90;;;;;;5050480;28;20196;-81
2021/08/06 05:25:14;;;;;;;8.80;3.77;;;16.90;99.90;;;;;;5050104;28;20224;-81
2021/08/06 05:27:43;;;;;;;9.97;3.87;;;17.00;99.90;;;;;;5050007;28;20275;-80
2021/08/06 05:30:11;;;;;;;9.60;4.13;;;17.10;99.90;;;;;;5050058;28;20283;-81
2021/08/06 05:32:38;;;;;;;7.73;2.90;;;17.20;99.90;;;;;;5050299;28;20204;-82
2021/08/06 05:35:05;;;;;;;11.10;3.00;;;17.30;99.90;;;;;;5050071;28;20237;-82
2021/08/06 05:37:32;;;;;;;4.57;3.40;;;17.30;99.90;;;;;;5050133;28;20202;-81
2021/08/06 05:40:01;;;;;;;7.80;3.30;;;17.40;99.90;;;;;;5049714;28;20223;-80
2021/08/06 05:42:27;;;;;;;6.03;3.07;;;17.40;99.90;;;;;;5049737;28;20275;-79
2021/08/06 05:44:54;;;;;;;10.20;3.30;;;17.50;99.90;;;;;;5049685;28;20196;-81
2021/08/06 05:47:21;;;;;;;4.80;3.07;;;17.60;99.90;;;;;;5049647;28;20203;-80
2021/08/06 05:49:48;;;;;;;6.33;2.80;;;17.60;99.90;;;;;;5049827;28;20279;-81
2021/08/06 05:52:15;;;;;;;4.90;3.00;;;17.80;99.90;;;;;;5049956;28;20234;-80
2021/08/06 05:54:42;;;;;;;6.57;3.20;;;18.00;99.90;;;;;;5049710;28;20204;-81
2021/08/06 05:57:10;;;;;;;7.33;2.70;;;18.20;99.90;;;;;;5049485;28;20202;-81
2021/08/06 05:59:37;;;;;;;6.37;3.00;;;18.40;99.90;;;;;;5049377;28;20649;-80
2021/08/06 06:02:04;;;;;;;8.00;2.87;;;18.50;99.90;;;;;;5049711;28;20192;-80
2021/08/06 06:04:31;;;;;;;7.27;3.10;;;18.60;99.90;;;;;;5051536;28;20204;-80
2021/08/06 06:06:58;;;;;;;7.43;2.57;;;18.90;99.90;;;;;;5052883;28;20307;-80
2021/08/06 06:09:25;;;;;;;6.43;2.57;;;19.00;99.90;;;;;;5052887;28;20279;-83
2021/08/06 06:11:52;;;;;;;7.20;3.00;;;19.20;99.90;;;;;;5053402;28;20261;-79
2021/08/06 06:14:21;;;;;;;6.47;2.40;;;19.30;99.90;;;;;;5053542;28;20188;-81
2021/08/06 06:16:47;;;;;;;5.70;2.50;;;19.30;99.90;;;;;;5052924;28;20287;-81
2021/08/06 06:19:16;;;;;;;9.33;3.20;;;19.30;99.90;;;;;;5052817;28;20224;-82
2021/08/06 06:21:43;;;;;;;6.90;2.90;;;19.10;99.90;;;;;;5052552;28;20204;-80
2021/08/06 06:24:10;;;;;;;8.57;3.10;;;19.00;99.90;;;;;;5052428;28;20232;-81
2021/08/06 06:26:37;;;;;;;10.47;2.97;;;18.80;99.90;;;;;;5052397;28;20668;-80
2021/08/06 06:29:04;;;;;;;5.77;2.70;;;18.70;99.90;;;;;;5052419;28;20589;-80
2021/08/06 06:31:32;;;;;;;4.27;2.70;;;18.70;99.90;;;;;;5052521;28;20200;-80
2021/08/06 06:34:00;;;;;;;6.97;3.03;;;18.70;99.90;;;;;;5052478;28;20272;-80
2021/08/06 06:36:27;;;;;;;8.03;3.03;;;18.80;99.90;;;;;;5052420;28;20196;-79
2021/08/06 06:38:54;;;;;;;9.70;3.00;;;18.90;99.90;;;;;;5052443;28;20288;-79
2021/08/06 06:41:21;;;;;;;10.93;2.97;;;18.90;99.90;;;;;;5052875;28;20581;-82
2021/08/06 06:43:47;;;;;;;13.83;3.13;;;19.00;99.90;;;;;;5044579;28;20201;-80
2021/08/06 06:46:14;;;;;;;5.73;3.07;;;19.10;99.90;;;;;;5052392;28;20572;-80
2021/08/06 06:48:43;;;;;;;9.80;4.00;;;19.10;99.90;;;;;;5053038;28;20297;-79
2021/08/06 06:51:09;;;;;;;7.80;2.90;;;19.30;99.90;;;;;;5052202;28;20275;-79
2021/08/06 06:53:36;;;;;;;12.63;3.43;;;19.70;99.90;;;;;;5052311;28;20223;-81
2021/08/06 06:56:03;;;;;;;7.17;2.70;;;20.00;99.90;;;;;;5052085;28;20279;-80
2021/08/06 06:58:30;;;;;;;4.70;2.37;;;20.30;99.90;;;;;;5052496;28;20197;-81
2021/08/06 07:00:58;;;;;;;6.20;2.43;;;20.30;99.90;;;;;;5052380;28;20657;-83
2021/08/06 07:03:25;;;;;;;5.37;2.50;;;19.90;99.90;;;;;;5052286;28;20193;-79
2021/08/06 07:05:53;;;;;;;4.00;2.30;;;19.70;99.90;;;;;;5052227;28;20710;-82
2021/08/06 07:08:20;;;;;;;9.40;2.80;;;19.70;99.90;;;;;;5051997;28;20228;-79
2021/08/06 07:10:47;;;;;;;8.47;2.30;;;19.70;99.90;;;;;;5052191;28;20240;-83
2021/08/06 07:13:14;;;;;;;5.40;2.40;;;19.60;99.90;;;;;;5051981;28;20775;-81
2021/08/06 07:15:41;;;;;;;4.43;2.40;;;19.80;99.90;;;;;;5051707;28;20693;-79
2021/08/06 07:18:08;;;;;;;2.57;1.70;;;19.80;99.90;;;;;;5052207;28;20207;-79
2021/08/06 07:20:34;;;;;;;6.43;2.27;;;20.00;99.90;;;;;;5051963;28;20283;-82
2021/08/06 07:23:03;;;;;;;4.73;2.00;;;20.30;99.90;;;;;;5052201;28;20325;-83
2021/08/06 07:25:30;;;;;;;9.03;2.27;;;20.40;99.90;;;;;;5056368;28;20287;-79
2021/08/06 07:27:57;;;;;;;6.93;2.07;;;20.30;99.90;;;;;;5060475;28;20227;-78
2021/08/06 07:30:24;;;;;;;5.20;2.33;;;20.40;99.90;;;;;;5062978;28;20185;-79
2021/08/06 07:32:51;;;;;;;8.83;1.80;;;20.40;99.90;;;;;;5062927;28;20243;-79
2021/08/06 07:35:21;;;;;;;4.80;1.80;;;20.30;99.90;;;;;;5061930;28;20239;-80
2021/08/06 07:37:48;;;;;;;6.53;1.97;;;20.00;99.90;;;;;;5054608;28;20196;-79
2021/08/06 07:40:17;;;;;;;4.17;1.80;;;20.00;99.90;;;;;;5060496;28;20719;-79
2021/08/06 07:42:44;;;;;;;5.27;2.00;;;20.40;99.90;;;;;;5053821;28;20224;-83
2021/08/06 07:45:12;;;;;;;4.37;1.87;;;20.40;99.90;;;;;;5052258;28;20184;-83
2021/08/06 07:47:39;;;;;;;5.27;2.00;;;20.40;99.90;;;;;;5051831;28;20762;-80
2021/08/06 07:50:07;;;;;;;5.10;2.20;;;20.20;99.90;;;;;;5051681;28;20228;-83
2021/08/06 07:52:34;;;;;;;8.47;2.03;;;20.30;99.90;;;;;;5051690;28;20287;-81
2021/08/06 07:55:01;;;;;;;3.80;2.30;;;20.80;99.90;;;;;;5051448;28;20283;-78
2021/08/06 07:57:29;;;;;;;5.63;2.33;;;21.40;99.90;;;;;;5051396;28;20196;-82
2021/08/06 07:59:56;;;;;;;5.73;2.20;;;21.80;99.90;;;;;;5051283;28;20594;-79
2021/08/06 08:02:24;;;;;;;3.53;1.70;;;22.00;99.90;;;;;;5051467;28;20201;-82
2021/08/06 08:04:50;;;;;;;2.77;1.87;;;22.10;99.90;;;;;;5051514;28;20238;-80
2021/08/06 08:07:17;;;;;;;6.77;2.10;;;21.90;99.90;;;;;;5051388;28;20307;-83
2021/08/06 08:09:45;;;;;;;8.70;2.27;;;21.50;99.90;;;;;;5051310;28;20224;-82
2021/08/06 08:12:13;;;;;;;5.73;2.10;;;21.20;99.90;;;;;;5051062;28;20279;-81
2021/08/06 08:14:42;;;;;;;2.57;1.77;;;21.20;99.90;;;;;;5050916;28;20203;-80
2021/08/06 08:17:09;;;;;;;5.13;1.87;;;21.10;99.90;;;;;;5050841;28;20193;-82
2021/08/06 08:19:36;;;;;;;4.23;1.80;;;21.00;99.90;;;;;;5051234;28;20261;-82
2021/08/06 08:22:03;;;;;;;4.60;2.00;;;21.10;99.90;;;;;;5050932;28;20244;-80
2021/08/06 08:24:32;;;;;;;7.03;2.30;;;21.10;99.90;;;;;;5050928;28;20194;-80
2021/08/06 08:26:59;;;;;;;7.20;1.80;;;21.20;99.90;;;;;;5050051;28;20287;-80
2021/08/06 08:29:26;;;;;;;5.00;1.73;;;21.50;99.90;;;;;;5050941;28;20613;-83
2021/08/06 08:31:54;;;;;;;5.27;1.87;;;21.60;99.90;;;;;;5050939;28;20196;-82
2021/08/06 08:34:22;;;;;;;4.85;2.03;;;22.70;99.90;;;;;;5050874;28;20287;-79
2021/08/06 08:36:49;;;;;;;5.38;1.80;;;23.10;99.90;;;;;;5050398;28;20192;-81
2021/08/06 08:39:17;;;;;;;8.35;1.70;;;23.40;99.90;;;;;;5050762;28;20252;-80
2021/08/06 08:41:44;;;;;;;2.95;1.90;;;23.20;99.90;;;;;;5050590;28;20276;-80
2021/08/06 08:44:11;;;;;;;5.65;1.60;;;23.10;99.90;;;;;;5050511;28;20199;-79
2021/08/06 08:46:39;;;;;;;2.15;1.70;;;23.00;99.90;;;;;;5050727;28;20219;-82
2021/08/06 08:49:07;;;;;;;6.45;1.90;;;22.80;99.90;;;;;;5050642;28;20200;-80
2021/08/06 08:51:36;;;;;;;2.92;1.45;;;22.80;99.90;;;;;;5050556;28;20287;-83
2021/08/06 08:54:05;;;;;;;3.70;1.70;;;22.60;99.90;;;;;;5050651;28;20205;-81
2021/08/06 08:56:32;;;;;;;2.53;1.50;;;22.80;99.90;;;;;;5050410;28;20291;-81
2021/08/06 08:58:59;;;;;;;2.20;1.45;;;22.90;99.90;;;;;;5050457;28;20239;-81
2021/08/06 09:01:26;;;;;;;2.63;1.52;;;22.70;99.90;;;;;;5050376;28;20224;-80
2021/08/06 09:03:53;;;;;;;4.25;1.70;;;22.30;99.90;;;;;;5050252;28;20231;-80
2021/08/06 09:06:39;;;;;;;4.68;1.70;;;21.70;99.90;;;;;;5050243;28;20240;-80
2021/08/06 09:09:13;;;;;;;6.17;1.70;;;21.30;99.90;;;;;;5050041;28;20189;-80
2021/08/06 09:11:40;;;;;;;6.50;1.50;;;21.40;99.90;;;;;;5050302;28;20231;-82
2021/08/06 09:14:32;;;;;;;3.63;1.30;;;21.20;99.90;;;;;;5050459;28;20200;-82
2021/08/06 09:17:02;;;;;;;3.03;1.20;;;21.40;99.90;;;;;;5054959;28;20192;-80
2021/08/06 09:19:30;;;;;;;4.30;1.37;;;21.40;99.90;;;;;;5050218;28;20698;-80
2021/08/06 09:22:15;;;;;;;7.23;1.40;;;21.30;99.90;;;;;;5050062;28;20294;-81
2021/08/06 09:25:07;;;;;;;3.70;1.60;;;21.20;99.90;;;;;;5050279;28;20192;-81
2021/08/06 09:27:35;;;;;;;3.53;1.50;;;21.30;99.90;;;;;;5050233;28;20300;-81
2021/08/06 09:30:06;;;;;;;4.43;1.40;;;21.30;99.90;;;;;;5050139;28;20236;-81
2021/08/06 09:32:46;;;;;;;4.50;1.30;;;21.20;99.90;;;;;;5050357;28;20261;-83
2021/08/06 09:35:15;;;;;;;7.93;1.77;;;20.80;99.90;;;;;;5050102;28;20192;-82
2021/08/06 09:37:44;;;;;;;5.90;1.80;;;20.20;99.90;;;;;;5050981;28;20208;-83
2021/08/06 09:40:16;;;;;;;5.13;1.90;;;19.80;99.90;;;;;;5053604;28;20204;-83
2021/08/06 09:42:54;;;;;;;6.93;1.67;;;19.20;99.90;;;;;;5053566;28;20252;-84
2021/08/06 09:45:24;;;;;;;3.40;1.60;;;18.90;99.90;;;;;;5053399;28;20279;-82
2021/08/06 09:47:56;;;;;;;4.80;1.37;;;19.90;99.90;;;;;;5053238;28;20259;-84
2021/08/06 09:50:25;;;;;;;4.00;1.43;;;21.50;99.90;;;;;;5053364;28;20283;-80
2021/08/06 09:52:54;;;;;;;2.07;1.13;;;23.10;99.90;;;;;;5053380;28;20323;-81
2021/08/06 09:55:24;;;;;;;3.58;1.02;;;24.00;99.90;;;;;;5053398;28;20192;-81
2021/08/06 09:57:52;;;;;;;5.72;1.52;;;24.50;99.90;;;;;;5053448;28;20317;-81
2021/08/06 10:00:21;;;;;;;4.57;1.38;;;24.50;99.90;;;;;;5053564;28;20232;-82
2021/08/06 10:02:48;;;;;;;6.38;1.50;;;24.30;99.90;;;;;;5053323;28;20203;-81
2021/08/06 10:05:17;;;;;;;7.10;1.95;;;23.10;99.90;;;;;;5053598;28;20255;-81
2021/08/06 10:07:46;;;;;;;5.20;1.50;;;22.20;99.90;;;;;;5053110;28;20673;-80
2021/08/06 10:10:17;;;;;;;2.67;1.40;;;21.70;99.90;;;;;;5053980;28;20237;-81
2021/08/06 10:12:44;;;;;;;2.70;1.40;;;21.40;99.90;;;;;;5053618;28;20276;-81
2021/08/06 10:15:12;;;;;;;2.30;1.43;;;21.30;99.90;;;;;;5053473;28;20562;-80
2021/08/06 10:17:39;;;;;;;1.70;1.27;;;21.70;99.90;;;;;;5053246;28;20228;-80
2021/08/06 10:20:09;;;;;;;2.35;1.20;;;23.10;99.90;;;;;;5052978;28;20271;-82
2021/08/06 10:22:36;;;;;;;2.17;1.30;;;24.10;99.90;;;;;;5053086;28;20299;-81
2021/08/06 10:25:07;;;;;;;3.92;1.50;;;25.00;99.90;;;;;;5052899;28;20218;-80
2021/08/06 10:27:37;;;;;;;3.42;1.65;;;25.40;99.90;;;;;;5053101;28;20250;-80
2021/08/06 10:30:07;;;;;;;4.00;1.70;;;25.60;99.90;;;;;;5052935;28;20249;-83
2021/08/06 10:32:36;;;;;;;3.55;1.42;;;25.20;99.90;;;;;;5052587;28;20291;-81
2021/08/06 10:35:16;;;;;;;4.20;1.30;;;25.40;99.90;;;;;;5052866;28;20283;-80
2021/08/06 10:37:58;;;;;;;5.55;1.65;;;26.50;99.90;;;;;;5052724;28;20284;-81
2021/08/06 10:41:02;;;;;;;4.05;1.30;;;27.10;99.90;;;;;;5052595;28;20242;-82
2021/08/06 10:43:59;;;;;;;5.10;1.58;;;27.00;99.90;;;;;;5052748;28;20275;-83
2021/08/06 10:46:27;;;;;;;6.10;1.58;;;27.10;99.90;;;;;;5052438;28;20191;-79
2021/08/06 10:48:55;;;;;;;4.90;1.42;;;26.90;99.90;;;;;;5052344;28;20223;-82
2021/08/06 10:51:31;;;;;;;4.65;1.48;;;26.60;99.90;;;;;;5051651;28;20239;-80
2021/08/06 10:54:24;;;;;;;2.35;1.20;;;26.30;99.90;;;;;;5052415;28;20693;-79
2021/08/06 10:57:11;;;;;;;2.80;1.10;;;25.20;99.90;;;;;;5052563;28;20219;-81
2021/08/06 10:59:40;;;;;;;1.67;1.08;;;24.60;99.90;;;;;;5052410;28;20204;-80
2021/08/06 11:02:41;;;;;;;3.17;1.20;;;24.20;99.90;;;;;;5052433;28;20296;-80
2021/08/06 11:05:33;;;;;;;2.60;1.30;;;23.80;99.90;;;;;;5052222;28;20199;-82
2021/08/06 11:08:01;;;;;;;1.88;1.20;;;23.50;99.90;;;;;;5052009;28;20319;-81
2021/08/06 11:10:50;;;;;;;2.58;1.00;;;23.20;99.90;;;;;;5052282;28;20223;-81
2021/08/06 11:13:51;;;;;;;2.00;1.00;;;23.30;99.90;;;;;;5052204;28;20203;-81
2021/08/06 11:16:20;;;;;;;1.92;1.20;;;24.10;99.90;;;;;;5052319;28;20207;-82
2021/08/06 11:18:49;;;;;;;1.63;1.08;;;25.20;99.90;;;;;;5043809;28;20287;-82
2021/08/06 11:21:18;;;;;;;2.35;1.17;;;26.40;99.90;;;;;;5052253;28;20609;-82
2021/08/06 11:23:54;;;;;;;4.18;1.17;;;27.00;99.90;;;;;;5052100;28;20204;-80
2021/08/06 11:26:21;;;;;;;1.63;1.08;;;26.70;99.90;;;;;;5051970;28;20231;-82
2021/08/06 11:28:48;;;;;;;1.75;1.00;;;26.70;99.90;;;;;;5043637;28;20238;-81
2021/08/06 11:31:20;;;;;;;4.88;1.55;;;26.30;99.90;;;;;;5051778;28;20521;-81
2021/08/06 11:33:58;;;;;;;4.13;1.40;;;24.80;99.90;;;;;;5043711;28;20249;-81
2021/08/06 11:36:25;;;;;;;3.78;1.30;;;23.40;99.90;;;;;;5052096;28;20208;-81
2021/08/06 11:38:54;;;;;;;1.25;0.93;;;22.60;99.90;;;;;;5051793;28;20227;-81
2021/08/06 11:41:21;;;;;;;1.60;1.00;;;22.90;99.90;;;;;;5051650;28;20232;-81
2021/08/06 11:43:48;;;;;;;3.65;1.08;;;23.70;99.90;;;;;;5051548;28;20359;-83
2021/08/06 11:46:16;;;;;;;2.97;1.05;;;23.90;99.90;;;;;;5051648;28;20200;-82
2021/08/06 11:48:48;;;;;;;3.08;1.10;;;23.90;99.90;;;;;;5051440;28;20219;-81
2021/08/06 11:51:15;;;;;;;2.42;1.13;;;24.40;99.90;;;;;;5051509;28;20239;-81
2021/08/06 11:53:42;;;;;;;2.85;1.15;;;24.20;99.90;;;;;;5051549;28;20210;-81
2021/08/06 11:56:14;;;;;;;2.53;1.25;;;23.80;99.90;;;;;;5051853;28;20284;-80
2021/08/06 11:58:42;;;;;;;6.15;1.30;;;23.40;99.90;;;;;;5051478;28;20363;-80
2021/08/06 12:01:16;;;;;;;5.30;1.20;;;23.10;99.90;;;;;;5051363;28;20199;-81
2021/08/06 12:03:44;;;;;;;2.83;1.40;;;23.20;99.90;;;;;;5051016;28;20192;-86
2021/08/06 12:06:15;;;;;;;2.28;1.10;;;23.10;99.90;;;;;;5051373;28;20279;-81
2021/08/06 12:08:42;;;;;;;2.88;1.08;;;22.80;99.90;;;;;;5051241;28;20602;-80
2021/08/06 12:11:14;;;;;;;3.78;1.10;;;22.80;99.90;;;;;;5051196;28;20282;-84
2021/08/06 12:13:48;;;;;;;3.28;0.98;;;23.20;99.90;;;;;;5051090;28;20283;-82
2021/08/06 12:16:17;;;;;;;3.28;1.05;;;23.60;99.90;;;;;;5051017;28;20628;-80
2021/08/06 12:18:47;;;;;;;2.45;1.00;;;23.60;99.90;;;;;;5051020;28;20649;-81
2021/08/06 12:21:18;;;;;;;3.58;1.00;;;23.50;99.90;;;;;;5051038;28;20199;-82
2021/08/06 12:23:47;;;;;;;3.45;1.02;;;23.80;99.90;;;;;;5051327;28;20203;-83
2021/08/06 12:26:18;;;;;;;5.72;0.93;;;24.00;99.90;;;;;;5051192;27;20275;-82
2021/08/06 12:28:46;;;;;;;12.23;1.50;;;24.50;99.90;;;;;;5051022;28;20256;-81
2021/08/06 12:31:20;;;;;;;1.58;1.00;;;25.10;99.90;;;;;;5050944;28;20200;-81
2021/08/06 12:33:49;;;;;;;1.83;1.08;;;24.90;99.90;;;;;;5042668;28;20224;-81
2021/08/06 12:36:20;;;;;;;1.95;1.08;;;24.70;99.90;;;;;;5051030;28;20273;-81
2021/08/06 12:38:49;;;;;;;6.30;1.27;;;25.00;99.90;;;;;;5050705;28;20622;-80
2021/08/06 12:41:27;;;;;;;3.55;1.00;;;24.90;99.90;;;;;;5050817;28;20215;-84
2021/08/06 12:44:20;;;;;;;1.65;0.98;;;24.80;99.90;;;;;;5050843;28;20192;-83
2021/08/06 12:47:13;;;;;;;1.83;0.90;;;24.80;99.90;;;;;;5050850;28;20684;-84
2021/08/06 12:49:43;;;;;;;3.08;1.00;;;25.10;99.90;;;;;;5051742;28;20704;-83
2021/08/06 12:52:18;;;;;;;1.40;1.02;;;24.90;99.90;;;;;;5050965;28;20195;-82
2021/08/06 12:54:59;;;;;;;1.85;1.08;;;24.80;99.90;;;;;;5050734;28;20192;-82
2021/08/06 12:57:46;;;;;;;1.50;0.82;;;25.00;99.90;;;;;;5050522;28;20283;-79
2021/08/06 13:00:24;;;;;;;3.60;1.02;;;25.00;99.90;;;;;;5050658;28;20193;-83
2021/08/06 13:03:03;;;;;;;1.38;0.93;;;25.30;99.90;;;;;;5050499;28;20207;-84
2021/08/06 13:05:31;;;;;;;1.02;0.75;;;25.20;99.90;;;;;;5050773;28;20282;-82
2021/08/06 13:08:13;;;;;;;2.88;1.10;;;25.40;99.90;;;;;;5050652;28;20251;-82
2021/08/06 13:10:40;;;;;;;2.13;1.00;;;24.70;99.90;;;;;;5050157;28;20593;-82
2021/08/06 13:13:07;;;;;;;3.92;1.00;;;24.60;99.90;;;;;;5049920;28;20268;-80
2021/08/06 13:15:34;;;;;;;5.32;0.85;;;24.60;99.90;;;;;;5049972;28;20288;-83
2021/08/06 13:18:01;;;;;;;1.45;1.05;;;24.40;99.90;;;;;;5050456;28;20200;-84
2021/08/06 13:20:28;;;;;;;1.58;0.90;;;24.70;99.90;;;;;;5050447;28;20196;-82
2021/08/06 13:22:55;;;;;;;1.27;0.98;;;24.80;99.90;;;;;;5050193;28;20196;-83
2021/08/06 13:25:23;;;;;;;3.05;0.95;;;24.90;99.90;;;;;;5050334;28;20546;-83
2021/08/06 13:27:51;;;;;;;2.60;0.95;;;24.40;99.90;;;;;;5050079;28;20293;-82